createdAt,value
2018-12-15T00:03:22.492Z,1.60
2018-12-15T00:08:15.735Z,1.60
2018-12-15T00:13:08.916Z,1.60
2018-12-15T00:18:02.190Z,1.70
2018-12-15T00:22:55.377Z,1.60
2018-12-15T00:27:48.791Z,1.50
2018-12-15T00:32:42.060Z,1.60
2018-12-15T00:37:35.258Z,1.60
2018-12-15T00:42:31.448Z,1.50
2018-12-15T00:47:24.726Z,1.40
2018-12-15T00:52:17.911Z,1.30
2018-12-15T00:57:12.489Z,1.40
2018-12-15T01:02:05.784Z,1.40
2018-12-15T01:06:59.211Z,1.40
2018-12-15T01:11:52.498Z,1.40
2018-12-15T01:16:46.011Z,1.40
2018-12-15T01:21:39.373Z,1.40
2018-12-15T01:26:33.109Z,1.30
2018-12-15T01:31:26.337Z,1.40
2018-12-15T01:36:19.591Z,1.40
2018-12-15T01:41:12.815Z,1.40
2018-12-15T01:46:06.053Z,1.30
2018-12-15T01:50:59.504Z,1.20
2018-12-15T01:55:53.082Z,1.20
2018-12-15T02:00:46.606Z,1.30
2018-12-15T02:05:39.851Z,1.30
2018-12-15T02:10:33.043Z,1.30
2018-12-15T02:15:26.333Z,1.40
2018-12-15T02:20:19.589Z,1.50
2018-12-15T02:25:14.013Z,1.40
2018-12-15T02:30:07.952Z,1.40
2018-12-15T02:35:01.259Z,1.50
2018-12-15T02:39:54.579Z,1.50
2018-12-15T02:44:47.840Z,1.60
2018-12-15T02:49:41.452Z,1.40
2018-12-15T02:54:34.815Z,1.40
2018-12-15T02:59:27.999Z,1.40
2018-12-15T03:04:21.412Z,1.40
2018-12-15T03:09:14.963Z,1.30
2018-12-15T03:14:08.150Z,1.30
2018-12-15T03:19:11.027Z,1.30
2018-12-15T03:24:04.227Z,1.30
2018-12-15T03:28:57.431Z,1.30
2018-12-15T03:33:51.444Z,1.30
2018-12-15T03:38:44.645Z,1.20
2018-12-15T03:43:38.047Z,1.20
2018-12-15T03:48:31.209Z,1.30
2018-12-15T03:53:24.388Z,1.20
2018-12-15T03:58:17.575Z,1.10
2018-12-15T04:03:10.896Z,1.10
2018-12-15T04:08:04.134Z,1.10
2018-12-15T04:12:57.324Z,1.20
2018-12-15T04:17:50.509Z,1.20
2018-12-15T04:22:44.749Z,1.20
2018-12-15T04:27:37.937Z,1.10
2018-12-15T04:32:31.128Z,1.10
2018-12-15T04:37:24.342Z,1.10
2018-12-15T04:42:17.559Z,1.10
2018-12-15T04:47:12.252Z,1.10
2018-12-15T04:52:05.462Z,1.00
2018-12-15T04:56:58.674Z,1.10
2018-12-15T05:01:51.849Z,1.20
2018-12-15T05:06:45.052Z,1.20
2018-12-15T05:11:38.283Z,1.20
2018-12-15T05:16:31.504Z,1.10
2018-12-15T05:21:24.710Z,1.10
2018-12-15T05:26:17.891Z,1.10
2018-12-15T05:31:12.180Z,1.10
2018-12-15T05:36:05.361Z,1.10
2018-12-15T05:41:00.201Z,1.10
2018-12-15T05:45:53.403Z,1.10
2018-12-15T05:50:46.624Z,1.10
2018-12-15T05:55:40.321Z,1.10
2018-12-15T06:00:33.537Z,1.10
2018-12-15T06:05:27.053Z,1.10
2018-12-15T06:10:20.254Z,1.00
2018-12-15T06:15:13.584Z,1.10
2018-12-15T06:20:07.512Z,1.10
2018-12-15T06:25:00.690Z,1.10
2018-12-15T06:29:53.904Z,1.10
2018-12-15T06:34:48.325Z,1.10
2018-12-15T06:39:41.536Z,1.20
2018-12-15T06:44:34.769Z,1.20
2018-12-15T06:49:28.289Z,1.10
2018-12-15T06:54:22.293Z,1.20
2018-12-15T06:59:16.132Z,1.10
2018-12-15T07:04:09.356Z,1.20
2018-12-15T07:09:03.442Z,1.10
2018-12-15T07:13:56.632Z,1.20
2018-12-15T07:18:50.125Z,1.20
2018-12-15T07:23:43.454Z,1.20
2018-12-15T07:28:36.774Z,1.20
2018-12-15T07:33:29.956Z,1.10
2018-12-15T07:38:23.234Z,1.10
2018-12-15T07:43:16.415Z,1.20
2018-12-15T07:48:09.599Z,1.20
2018-12-15T07:53:02.823Z,1.20
2018-12-15T07:57:56.001Z,1.20
2018-12-15T08:02:49.196Z,1.30
2018-12-15T08:07:42.530Z,1.20
2018-12-15T08:12:38.699Z,1.30
2018-12-15T08:17:31.924Z,1.20
2018-12-15T08:22:26.287Z,1.30
2018-12-15T08:27:19.678Z,1.30
2018-12-15T08:32:13.053Z,1.30
2018-12-15T08:37:06.474Z,1.40
2018-12-15T08:41:59.677Z,1.30
2018-12-15T08:46:52.890Z,1.30
2018-12-15T08:51:46.056Z,1.30
2018-12-15T08:56:39.375Z,1.40
2018-12-15T09:01:32.667Z,1.40
2018-12-15T09:06:25.917Z,1.50
2018-12-15T09:11:19.873Z,1.40
2018-12-15T09:16:13.835Z,1.40
2018-12-15T09:21:07.252Z,1.30
2018-12-15T09:26:00.475Z,1.40
2018-12-15T09:30:53.805Z,1.40
2018-12-15T09:35:47.151Z,1.40
2018-12-15T09:40:40.428Z,1.40
2018-12-15T09:45:33.939Z,1.40
2018-12-15T09:50:27.375Z,1.40
2018-12-15T09:55:20.720Z,1.40
2018-12-15T10:00:14.420Z,1.40
2018-12-15T10:05:07.826Z,1.40
2018-12-15T10:10:01.028Z,1.40
2018-12-15T10:14:55.319Z,1.60
2018-12-15T10:19:50.035Z,1.50
2018-12-15T10:24:43.242Z,1.50
2018-12-15T10:29:42.049Z,1.60
2018-12-15T10:34:35.272Z,1.50
2018-12-15T10:39:28.542Z,1.50
2018-12-15T10:44:21.730Z,1.50
2018-12-15T10:49:15.475Z,1.50
2018-12-15T10:54:08.786Z,1.60
2018-12-15T10:59:02.686Z,1.70
2018-12-15T11:04:00.758Z,1.60
2018-12-15T11:08:51.300Z,1.60
2018-12-15T11:13:45.367Z,1.60
2018-12-15T11:18:38.657Z,1.60
2018-12-15T11:23:32.198Z,1.60
2018-12-15T11:28:25.583Z,1.80
2018-12-15T11:33:18.853Z,1.70
2018-12-15T11:38:12.098Z,1.70
2018-12-15T11:43:05.463Z,1.80
2018-12-15T11:47:58.667Z,1.90
2018-12-15T11:52:51.946Z,2.00
2018-12-15T11:57:45.128Z,1.90
2018-12-15T12:02:39.452Z,1.90
2018-12-15T12:07:32.701Z,1.90
2018-12-15T12:12:26.937Z,2.00
2018-12-15T12:17:20.172Z,2.00
2018-12-15T12:22:13.595Z,2.10
2018-12-15T12:27:06.810Z,1.90
2018-12-15T12:32:01.730Z,1.80
2018-12-15T12:36:54.983Z,2.00
2018-12-15T12:41:55.385Z,2.10
2018-12-15T12:46:49.096Z,2.10
2018-12-15T12:51:42.790Z,2.00
2018-12-15T12:56:36.018Z,2.00
2018-12-15T13:01:29.396Z,2.10
2018-12-15T13:06:22.604Z,2.20
2018-12-15T13:11:16.184Z,2.10
2018-12-15T13:16:09.452Z,2.10
2018-12-15T13:21:02.703Z,2.10
2018-12-15T13:25:55.933Z,2.00
2018-12-15T13:30:49.105Z,2.00
2018-12-15T13:35:42.359Z,2.00
2018-12-15T13:40:35.689Z,2.20
2018-12-15T13:45:29.313Z,2.20
2018-12-15T13:50:22.580Z,2.10
2018-12-15T13:55:15.797Z,2.10
2018-12-15T14:00:09.293Z,2.00
2018-12-15T14:05:02.716Z,2.00
2018-12-15T14:09:55.951Z,2.00
2018-12-15T14:14:49.275Z,2.00
2018-12-15T14:19:42.449Z,2.00
2018-12-15T14:24:35.727Z,1.90
2018-12-15T14:29:28.925Z,1.90
2018-12-15T14:34:22.086Z,1.90
2018-12-15T14:39:15.303Z,1.80
2018-12-15T14:44:09.139Z,1.80
2018-12-15T14:49:02.897Z,1.80
2018-12-15T14:53:56.119Z,1.80
2018-12-15T14:58:49.385Z,1.70
2018-12-15T15:03:42.603Z,1.70
2018-12-15T15:08:35.813Z,1.60
2018-12-15T15:13:34.546Z,1.50
2018-12-15T15:18:24.415Z,1.50
2018-12-15T15:23:17.703Z,1.30
2018-12-15T15:28:10.947Z,1.20
2018-12-15T15:33:04.243Z,1.30
2018-12-15T15:37:57.514Z,1.20
2018-12-15T15:42:51.679Z,1.20
2018-12-15T15:47:44.974Z,1.10
2018-12-15T15:52:38.338Z,1.10
2018-12-15T15:57:32.659Z,1.00
2018-12-15T16:02:26.108Z,0.90
2018-12-15T16:07:19.365Z,1.00
2018-12-15T16:12:12.648Z,1.00
2018-12-15T16:17:06.104Z,1.10
2018-12-15T16:21:59.359Z,0.90
2018-12-15T16:26:52.569Z,0.80
2018-12-15T16:31:46.448Z,0.90
2018-12-15T16:36:39.729Z,0.90
2018-12-15T16:41:32.934Z,0.90
2018-12-15T16:46:26.123Z,0.80
2018-12-15T16:51:19.688Z,0.80
2018-12-15T16:56:12.885Z,0.80
2018-12-15T17:01:06.810Z,0.70
2018-12-15T17:06:00.074Z,0.70
2018-12-15T17:10:53.324Z,0.70
2018-12-15T17:15:46.525Z,0.70
2018-12-15T17:20:39.720Z,0.60
2018-12-15T17:25:33.474Z,0.60
2018-12-15T17:30:26.981Z,0.60
2018-12-15T17:35:20.827Z,0.60
2018-12-15T17:40:15.068Z,0.60
2018-12-15T17:45:08.958Z,0.60
2018-12-15T17:50:02.235Z,0.50
2018-12-15T17:54:56.172Z,0.50
2018-12-15T17:59:49.537Z,0.30
2018-12-15T18:04:42.851Z,0.40
2018-12-15T18:09:36.066Z,0.30
2018-12-15T18:14:29.359Z,0.30
2018-12-15T18:19:23.125Z,0.30
2018-12-15T18:24:16.340Z,0.30
2018-12-15T18:29:09.526Z,0.30
2018-12-15T18:34:02.778Z,0.20
2018-12-15T18:38:56.076Z,0.20
2018-12-15T18:43:49.305Z,0.20
2018-12-15T18:48:42.763Z,0.20
2018-12-15T18:53:36.353Z,0.20
2018-12-15T18:58:29.622Z,0.10
2018-12-15T19:03:23.265Z,0.10
2018-12-15T19:08:16.619Z,0.20
2018-12-15T19:13:09.853Z,0.10
2018-12-15T19:18:03.181Z,0.20
2018-12-15T19:22:56.408Z,0.10
2018-12-15T19:27:49.622Z,0.10
2018-12-15T19:32:43.965Z,0.10
2018-12-15T19:37:37.710Z,0.10
2018-12-15T19:42:30.969Z,0.10
2018-12-15T19:47:24.153Z,0.10
2018-12-15T19:52:17.410Z,0.00
2018-12-15T19:57:10.646Z,0.00
2018-12-15T20:02:03.890Z,0.00
2018-12-15T20:06:57.145Z,0.00
2018-12-15T20:11:50.373Z,0.00
2018-12-15T20:16:43.722Z,0.00
2018-12-15T20:21:36.927Z,0.00
2018-12-15T20:26:30.239Z,0.00
2018-12-15T20:31:23.495Z,0.00
2018-12-15T20:36:16.721Z,-0.10
2018-12-15T20:41:09.981Z,0.00
2018-12-15T20:46:03.353Z,0.00
2018-12-15T20:50:56.609Z,-0.10
2018-12-15T20:55:50.333Z,0.00
2018-12-15T21:00:43.543Z,0.00
2018-12-15T21:05:36.941Z,0.00
2018-12-15T21:10:30.284Z,0.00
2018-12-15T21:15:28.935Z,-0.10
2018-12-15T21:20:22.147Z,0.00
2018-12-15T21:25:15.368Z,0.00
2018-12-15T21:30:10.407Z,0.00
2018-12-15T21:35:04.425Z,0.00
2018-12-15T21:39:57.655Z,0.20
2018-12-15T21:44:50.895Z,0.10
2018-12-15T21:49:44.375Z,0.20
2018-12-15T21:54:37.644Z,0.20
2018-12-15T21:59:31.041Z,0.20
2018-12-15T22:04:24.249Z,0.20
2018-12-15T22:09:17.590Z,0.20
2018-12-15T22:14:10.838Z,0.20
2018-12-15T22:19:04.048Z,0.20
2018-12-15T22:23:57.279Z,0.20
2018-12-15T22:28:50.520Z,0.20
2018-12-15T22:33:43.761Z,0.20
2018-12-15T22:38:36.952Z,0.30
2018-12-15T22:43:30.637Z,0.30
2018-12-15T22:48:23.899Z,0.20
2018-12-15T22:53:17.161Z,0.30
2018-12-15T22:58:10.797Z,0.30
2018-12-15T23:03:04.457Z,0.30
2018-12-15T23:07:58.397Z,0.30
2018-12-15T23:12:51.638Z,0.30
2018-12-15T23:17:44.870Z,0.30
2018-12-15T23:22:38.108Z,0.30
2018-12-15T23:27:31.362Z,0.30
2018-12-15T23:32:24.607Z,0.30
2018-12-15T23:37:17.843Z,0.40
2018-12-15T23:42:11.169Z,0.40
2018-12-15T23:47:04.520Z,0.40
2018-12-15T23:51:57.853Z,0.40
2018-12-15T23:56:51.069Z,0.50
